Time;durP1;ratioP1;P1;durP2;ratioP2;P2;SDS_P1;SDS_P2;PMS_P1;PMS_P2;Temp;Humidity;BMP_temperature;BMP_pressure;BME280_temperature;BME280_humidity;BME280_pressure;Samples;Min_cycle;Max_cycle;Signal;HPM_P1;HPM_P2
2021/05/09 00:01:25;;;;;;;;;;;;;;;8.89;51.62;100439.22;4446844;32;35764;-82
2021/05/09 00:03:53;;;;;;;;;;;;;;;8.92;51.42;100447.78;4446373;32;34437;-84
2021/05/09 00:06:21;;;;;;;;;;;;;;;8.93;51.62;100448.62;4460938;32;32336;-85
2021/05/09 00:08:49;;;;;;;;;;;;;;;8.82;51.86;100441.47;4452786;32;33582;-81
2021/05/09 00:11:16;;;;;;;;;;;;;;;8.80;51.88;100450.53;4446605;32;35150;-85
2021/05/09 00:13:43;;;;;;;;;;;;;;;8.86;51.62;100445.59;4470106;31;35051;-86
2021/05/09 00:16:10;;;;;;;;;;;;;;;8.76;51.90;100446.41;4453824;32;31932;-84
2021/05/09 00:18:38;;;;;;;;;;;;;;;8.82;51.79;100446.78;4456068;32;33505;-86
2021/05/09 00:21:05;;;;;;;;;;;;;;;8.77;51.92;100450.75;4448884;32;35557;-83
2021/05/09 00:23:32;;;;;;;;;;;;;;;8.74;52.19;100446.56;4446556;32;33845;-86
2021/05/09 00:26:06;;;;;;;;;;;;;;;8.57;53.39;100454.94;4464989;32;33307;-85
2021/05/09 00:28:33;;;;;;;;;;;;;;;8.58;52.74;100450.47;4442182;32;32778;-81
2021/05/09 00:31:00;;;;;;;;;;;;;;;8.68;52.36;100447.00;4448896;32;35860;-87
2021/05/09 00:33:27;;;;;;;;;;;;;;;8.67;52.48;100460.37;4445965;32;35050;-87
2021/05/09 00:36:11;;;;;;;;;;;;;;;8.48;53.33;100445.03;4465992;31;33014;-87
2021/05/09 00:38:39;;;;;;;;;;;;;;;8.49;53.09;100446.72;4446274;32;33393;-84
2021/05/09 00:41:05;;;;;;;;;;;;;;;8.48;53.37;100448.62;4452458;31;35934;-84
2021/05/09 00:43:32;;;;;;;;;;;;;;;8.49;53.89;100443.19;4448216;32;34564;-82
2021/05/09 00:46:00;;;;;;;;;;;;;;;8.57;53.26;100443.47;4446640;32;32413;-87
2021/05/09 00:48:34;;;;;;;;;;;;;;;8.51;53.15;100442.12;4464380;32;34439;-87
2021/05/09 00:51:01;;;;;;;;;;;;;;;8.53;52.81;100437.53;4459501;32;34883;-86
2021/05/09 00:53:28;;;;;;;;;;;;;;;8.52;52.78;100440.34;4460536;32;35131;-88
2021/05/09 00:55:57;;;;;;;;;;;;;;;8.47;52.67;100434.53;4445152;32;33028;-86
2021/05/09 00:58:25;;;;;;;;;;;;;;;8.32;53.45;100432.19;4448361;32;32697;-86
2021/05/09 01:00:52;;;;;;;;;;;;;;;8.23;54.54;100438.16;4445957;32;34920;-81
2021/05/09 01:03:22;;;;;;;;;;;;;;;8.33;54.07;100425.91;4449184;32;33982;-86
2021/05/09 01:05:49;;;;;;;;;;;;;;;8.24;53.84;100429.25;4446704;31;32768;-85
2021/05/09 01:08:16;;;;;;;;;;;;;;;8.30;53.41;100428.81;4448379;32;34679;-87
2021/05/09 01:10:44;;;;;;;;;;;;;;;8.31;53.47;100431.31;4445993;32;34397;-86
2021/05/09 01:13:11;;;;;;;;;;;;;;;8.37;53.60;100432.69;4448700;32;34082;-81
2021/05/09 01:15:39;;;;;;;;;;;;;;;8.39;53.52;100428.94;4450140;32;32811;-87
2021/05/09 01:18:06;;;;;;;;;;;;;;;8.35;53.34;100426.63;4446001;32;33237;-84
2021/05/09 01:20:34;;;;;;;;;;;;;;;8.31;53.58;100433.13;4445745;32;34912;-82
2021/05/09 01:23:02;;;;;;;;;;;;;;;8.38;53.17;100421.13;4446134;31;33809;-85
2021/05/09 01:25:29;;;;;;;;;;;;;;;8.37;53.22;100422.09;4450645;31;33988;-85
2021/05/09 01:27:57;;;;;;;;;;;;;;;8.22;54.01;100416.09;4449791;32;33319;-84
2021/05/09 01:30:24;;;;;;;;;;;;;;;8.38;53.53;100419.31;4447668;32;35641;-87
2021/05/09 01:32:51;;;;;;;;;;;;;;;8.29;53.90;100420.00;4463734;32;34148;-85
2021/05/09 01:35:20;;;;;;;;;;;;;;;8.28;53.95;100415.66;4446262;32;33229;-87
2021/05/09 01:37:47;;;;;;;;;;;;;;;8.35;53.72;100411.59;4448665;32;33708;-86
2021/05/09 01:40:16;;;;;;;;;;;;;;;8.17;54.70;100415.59;4450373;32;35619;-87
2021/05/09 01:42:43;;;;;;;;;;;;;;;8.19;55.13;100421.62;4450151;32;33919;-85
2021/05/09 01:45:11;;;;;;;;;;;;;;;8.27;54.56;100415.75;4459992;32;33101;-86
2021/05/09 01:47:38;;;;;;;;;;;;;;;7.97;55.14;100421.53;4448117;32;34124;-85
2021/05/09 01:50:07;;;;;;;;;;;;;;;7.85;55.98;100426.87;4446844;32;34217;-85
2021/05/09 01:52:34;;;;;;;;;;;;;;;8.02;55.09;100422.00;4473154;31;34753;-85
2021/05/09 01:55:01;;;;;;;;;;;;;;;8.08;54.55;100415.41;4463422;31;33637;-83
2021/05/09 01:57:29;;;;;;;;;;;;;;;8.07;54.63;100419.03;4462713;31;33369;-85
2021/05/09 01:59:58;;;;;;;;;;;;;;;8.09;54.60;100427.72;4461149;31;34914;-87
2021/05/09 02:02:27;;;;;;;;;;;;;;;8.10;54.97;100421.47;4469018;31;33891;-83
2021/05/09 02:04:57;;;;;;;;;;;;;;;8.01;55.75;100425.62;4446537;32;35457;-82
2021/05/09 02:07:24;;;;;;;;;;;;;;;8.12;55.37;100422.19;4445908;32;34158;-82
2021/05/09 02:09:52;;;;;;;;;;;;;;;7.93;55.87;100425.34;4466670;31;35933;-83
2021/05/09 02:12:26;;;;;;;;;;;;;;;7.85;55.95;100421.56;4447980;32;33416;-86
2021/05/09 02:14:55;;;;;;;;;;;;;;;7.26;57.93;100425.03;4446568;32;33190;-86
2021/05/09 02:17:22;;;;;;;;;;;;;;;7.66;56.57;100418.56;4446948;32;34470;-87
2021/05/09 02:19:50;;;;;;;;;;;;;;;7.83;56.86;100418.19;4451461;32;34580;-86
2021/05/09 02:22:19;;;;;;;;;;;;;;;7.94;55.98;100419.06;4459441;32;35643;-85
2021/05/09 02:24:46;;;;;;;;;;;;;;;8.04;55.27;100413.94;4456420;31;34835;-81
2021/05/09 02:27:14;;;;;;;;;;;;;;;7.91;55.60;100421.94;4447401;32;33670;-86
2021/05/09 02:29:41;;;;;;;;;;;;;;;7.94;55.32;100429.66;4453131;32;33450;-81
2021/05/09 02:32:08;;;;;;;;;;;;;;;7.96;55.23;100429.56;4459709;31;33962;-84
2021/05/09 02:34:37;;;;;;;;;;;;;;;7.96;55.15;100432.22;4447849;32;31944;-85
2021/05/09 02:37:04;;;;;;;;;;;;;;;7.94;55.15;100434.13;4445152;31;35167;-84
2021/05/09 02:39:32;;;;;;;;;;;;;;;8.02;54.91;100434.44;4459818;31;36201;-85
2021/05/09 02:41:59;;;;;;;;;;;;;;;7.94;55.01;100434.13;4467045;32;34556;-85
2021/05/09 02:44:26;;;;;;;;;;;;;;;7.89;55.45;100437.13;4449035;32;33016;-86
2021/05/09 02:46:53;;;;;;;;;;;;;;;7.92;55.10;100438.72;4451365;32;33885;-85
2021/05/09 02:49:21;;;;;;;;;;;;;;;7.97;54.76;100439.19;4463139;32;35498;-86
2021/05/09 02:51:48;;;;;;;;;;;;;;;7.97;54.74;100444.50;4444157;32;34362;-86
2021/05/09 02:54:16;;;;;;;;;;;;;;;7.97;54.74;100437.41;4433648;32;31935;-82
2021/05/09 02:56:43;;;;;;;;;;;;;;;7.93;54.95;100445.69;4448464;31;32784;-82
2021/05/09 02:59:10;;;;;;;;;;;;;;;7.77;55.62;100451.25;4469681;32;35771;-86
2021/05/09 03:01:38;;;;;;;;;;;;;;;7.70;56.36;100454.44;4469106;31;34401;-85
2021/05/09 03:04:05;;;;;;;;;;;;;;;7.80;56.18;100439.56;4458880;32;32869;-87
2021/05/09 03:06:32;;;;;;;;;;;;;;;7.75;56.63;100447.03;4447284;32;34361;-85
2021/05/09 03:09:00;;;;;;;;;;;;;;;7.87;55.96;100451.44;4444930;32;34104;-86
2021/05/09 03:11:29;;;;;;;;;;;;;;;7.81;56.34;100452.72;4448432;32;34657;-83
2021/05/09 03:13:57;;;;;;;;;;;;;;;7.84;56.29;100455.13;4444792;32;33616;-85
2021/05/09 03:16:24;;;;;;;;;;;;;;;7.69;56.82;100460.69;4459253;32;34168;-86
2021/05/09 03:18:51;;;;;;;;;;;;;;;7.68;57.02;100456.38;4442548;32;34001;-85
2021/05/09 03:21:21;;;;;;;;;;;;;;;7.80;56.45;100456.34;4448707;32;33653;-86
2021/05/09 03:23:48;;;;;;;;;;;;;;;7.85;55.91;100463.94;4464105;32;32644;-86
2021/05/09 03:26:31;;;;;;;;;;;;;;;8.22;55.71;100468.28;4460657;31;841856;-85
2021/05/09 03:28:59;;;;;;;;;;;;;;;8.22;55.71;100468.28;4461321;32;33186;-86
2021/05/09 03:31:26;;;;;;;;;;;;;;;7.80;55.72;100472.22;4472437;32;33722;-84
2021/05/09 03:33:53;;;;;;;;;;;;;;;7.74;55.84;100470.00;4486448;32;36259;-86
2021/05/09 03:36:21;;;;;;;;;;;;;;;7.65;55.74;100468.00;4459574;32;34848;-86
2021/05/09 03:38:48;;;;;;;;;;;;;;;7.62;56.02;100470.03;4472113;32;32557;-87
2021/05/09 03:41:14;;;;;;;;;;;;;;;7.62;56.35;100472.69;4460063;31;33217;-86
2021/05/09 03:43:42;;;;;;;;;;;;;;;7.58;56.75;100474.72;4472158;32;35608;-87
2021/05/09 03:46:09;;;;;;;;;;;;;;;7.66;56.37;100475.00;4460176;32;33359;-83
2021/05/09 03:48:36;;;;;;;;;;;;;;;7.74;55.96;100470.00;4487423;32;33586;-86
2021/05/09 03:51:03;;;;;;;;;;;;;;;7.76;56.02;100472.56;4459916;32;33492;-82
2021/05/09 03:53:30;;;;;;;;;;;;;;;7.75;55.88;100478.81;4460003;32;36199;-82
2021/05/09 03:55:57;;;;;;;;;;;;;;;7.76;56.05;100476.06;4485982;32;33925;-81
2021/05/09 03:58:24;;;;;;;;;;;;;;;7.84;55.73;100480.81;4487160;31;32869;-87
2021/05/09 04:00:51;;;;;;;;;;;;;;;7.83;55.81;100479.12;4487788;32;34564;-86
2021/05/09 04:03:19;;;;;;;;;;;;;;;7.76;56.44;100483.16;4472202;32;35515;-86
2021/05/09 04:05:47;;;;;;;;;;;;;;;7.80;56.44;100489.91;4471602;32;32789;-82
2021/05/09 04:08:14;;;;;;;;;;;;;;;7.81;56.84;100489.81;4472439;31;33146;-87
2021/05/09 04:10:42;;;;;;;;;;;;;;;7.90;56.91;100491.78;4472269;32;34566;-85
2021/05/09 04:13:09;;;;;;;;;;;;;;;7.92;57.02;100494.34;4472332;32;35075;-84
2021/05/09 04:15:35;;;;;;;;;;;;;;;7.99;56.74;100496.44;4471992;32;33077;-85
2021/05/09 04:18:03;;;;;;;;;;;;;;;7.89;57.49;100494.53;4472443;32;33739;-86
2021/05/09 04:20:30;;;;;;;;;;;;;;;8.00;56.98;100494.63;4486089;32;33683;-82
2021/05/09 04:23:07;;;;;;;;;;;;;;;8.05;56.77;100497.78;4459274;32;33979;-84
2021/05/09 04:25:34;;;;;;;;;;;;;;;8.19;56.45;100502.97;4469507;32;34771;-83
2021/05/09 04:28:01;;;;;;;;;;;;;;;8.27;56.45;100508.53;4468705;32;33312;-83
2021/05/09 04:30:29;;;;;;;;;;;;;;;8.28;56.37;100503.12;4469283;32;34783;-86
2021/05/09 04:33:00;;;;;;;;;;;;;;;8.39;56.05;100516.44;4455973;32;35098;-86
2021/05/09 04:35:27;;;;;;;;;;;;;;;8.44;55.95;100512.47;4456372;32;34677;-82
2021/05/09 04:37:56;;;;;;;;;;;;;;;8.38;56.72;100501.50;4459914;32;33183;-86
2021/05/09 04:40:24;;;;;;;;;;;;;;;8.57;56.54;100507.97;4459283;32;33383;-86
2021/05/09 04:42:51;;;;;;;;;;;;;;;8.74;56.00;100504.03;4431628;32;34059;-84
2021/05/09 04:45:18;;;;;;;;;;;;;;;8.72;55.79;100504.16;4458597;32;35039;-86
2021/05/09 04:47:45;;;;;;;;;;;;;;;9.00;55.10;100513.53;4459465;32;33753;-84
2021/05/09 04:50:13;;;;;;;;;;;;;;;8.98;55.48;100518.94;4445401;32;33811;-84
2021/05/09 04:52:40;;;;;;;;;;;;;;;9.12;55.50;100521.41;4445495;32;34563;-86
2021/05/09 04:55:07;;;;;;;;;;;;;;;9.15;55.42;100523.81;4433052;32;34044;-82
2021/05/09 04:57:53;;;;;;;;;;;;;;;9.32;55.60;100517.19;4447309;32;34735;-85
2021/05/09 05:00:21;;;;;;;;;;;;;;;9.47;55.34;100518.69;4459815;32;34534;-85
2021/05/09 05:02:48;;;;;;;;;;;;;;;9.40;56.58;100517.47;3982886;26;34862;-77
2021/05/09 05:05:15;;;;;;;;;;;;;;;9.12;57.45;100520.56;4443303;32;32817;-77
2021/05/09 05:07:43;;;;;;;;;;;;;;;9.25;57.41;100526.62;4444756;32;34376;-77
2021/05/09 05:10:10;;;;;;;;;;;;;;;9.19;57.61;100522.59;4443764;32;33496;-77
2021/05/09 05:12:36;;;;;;;;;;;;;;;9.93;55.33;100517.56;4445100;32;34768;-80
2021/05/09 05:15:04;;;;;;;;;;;;;;;10.11;54.86;100518.78;4445162;32;35106;-77
2021/05/09 05:17:31;;;;;;;;;;;;;;;10.38;54.18;100521.84;4441331;32;33423;-78
2021/05/09 05:19:58;;;;;;;;;;;;;;;10.40;53.15;100519.06;4443552;32;33571;-78
2021/05/09 05:22:25;;;;;;;;;;;;;;;10.15;54.12;100525.56;4444331;32;34639;-77
2021/05/09 05:24:52;;;;;;;;;;;;;;;10.45;53.51;100525.72;4443829;32;34885;-78
2021/05/09 05:27:19;;;;;;;;;;;;;;;10.58;53.90;100526.38;4443134;32;33795;-78
2021/05/09 05:29:46;;;;;;;;;;;;;;;10.67;53.91;100519.47;4444288;32;34076;-77
2021/05/09 05:32:13;;;;;;;;;;;;;;;11.06;51.78;100521.44;4455815;32;34656;-77
2021/05/09 05:34:40;;;;;;;;;;;;;;;11.02;51.87;100520.84;4443281;32;34990;-77
2021/05/09 05:37:07;;;;;;;;;;;;;;;11.21;51.56;100518.31;4443610;32;32897;-77
2021/05/09 05:39:35;;;;;;;;;;;;;;;11.31;52.45;100518.37;4443197;32;34336;-77
2021/05/09 05:42:03;;;;;;;;;;;;;;;11.59;51.63;100516.75;4442159;32;34113;-78
2021/05/09 05:44:30;;;;;;;;;;;;;;;11.76;49.72;100520.59;4444192;32;35218;-78
2021/05/09 05:46:57;;;;;;;;;;;;;;;12.01;50.28;100520.12;4445726;32;32438;-77
2021/05/09 05:49:24;;;;;;;;;;;;;;;12.11;49.95;100526.34;4444374;32;33887;-77
2021/05/09 05:51:51;;;;;;;;;;;;;;;12.20;50.33;100517.53;4445236;32;35216;-77
2021/05/09 05:54:18;;;;;;;;;;;;;;;12.25;49.32;100531.28;4446102;32;35230;-78
2021/05/09 05:56:45;;;;;;;;;;;;;;;12.81;48.34;100522.50;4442498;32;33321;-77
2021/05/09 05:59:12;;;;;;;;;;;;;;;12.81;45.40;100517.16;4428824;32;33286;-78
2021/05/09 06:01:39;;;;;;;;;;;;;;;13.13;44.05;100517.72;4442813;32;35988;-77
2021/05/09 06:04:07;;;;;;;;;;;;;;;13.25;42.91;100505.03;4442891;32;34557;-77
2021/05/09 06:06:34;;;;;;;;;;;;;;;13.45;42.39;100510.22;4441527;32;32040;-77
2021/05/09 06:09:04;;;;;;;;;;;;;;;13.42;42.83;100515.81;4429402;32;33209;-77
2021/05/09 06:11:31;;;;;;;;;;;;;;;13.46;43.12;100516.38;4443237;32;35609;-77
2021/05/09 06:13:57;;;;;;;;;;;;;;;13.41;43.18;100519.47;4443641;32;34140;-77
2021/05/09 06:16:45;;;;;;;;;;;;;;;13.78;41.83;100516.84;4444304;32;32753;-77
2021/05/09 06:19:12;;;;;;;;;;;;;;;13.73;41.82;100511.94;4429485;32;33933;-77
2021/05/09 06:21:39;;;;;;;;;;;;;;;13.68;43.32;100518.72;4444341;32;34841;-76
2021/05/09 06:24:06;;;;;;;;;;;;;;;14.21;41.37;100512.56;4442299;32;34205;-77
2021/05/09 06:26:33;;;;;;;;;;;;;;;14.20;40.57;100507.34;4443518;32;33034;-77
2021/05/09 06:29:00;;;;;;;;;;;;;;;14.22;40.69;100508.91;4439965;32;33576;-77
2021/05/09 06:31:27;;;;;;;;;;;;;;;14.47;40.88;100519.72;4442424;32;34885;-77
2021/05/09 06:33:56;;;;;;;;;;;;;;;14.20;41.48;100510.03;4441501;32;34631;-77
2021/05/09 06:36:23;;;;;;;;;;;;;;;14.34;41.91;100509.53;4440671;32;34336;-76
2021/05/09 06:38:50;;;;;;;;;;;;;;;14.52;41.30;100514.75;4442459;32;33843;-77
2021/05/09 06:41:19;;;;;;;;;;;;;;;14.70;40.79;100515.59;4441780;32;35011;-76
2021/05/09 06:43:47;;;;;;;;;;;;;;;15.07;39.03;100513.59;4443525;32;34087;-76
2021/05/09 06:46:14;;;;;;;;;;;;;;;15.17;38.23;100514.34;4443525;32;31416;-78
2021/05/09 06:48:41;;;;;;;;;;;;;;;15.01;38.14;100506.16;4442914;32;33674;-76
2021/05/09 06:51:08;;;;;;;;;;;;;;;15.06;38.39;100511.06;4443592;32;35183;-78
2021/05/09 06:53:35;;;;;;;;;;;;;;;14.96;38.95;100518.34;4443031;32;33699;-77
2021/05/09 06:56:02;;;;;;;;;;;;;;;15.21;38.02;100512.19;4441670;32;32889;-76
2021/05/09 06:58:29;;;;;;;;;;;;;;;15.62;37.26;100508.81;4442156;32;33786;-76
2021/05/09 07:00:57;;;;;;;;;;;;;;;15.62;38.33;100504.28;4440188;32;37086;-77
2021/05/09 07:03:23;;;;;;;;;;;;;;;15.81;37.97;100493.31;4441610;32;34832;-77
2021/05/09 07:05:50;;;;;;;;;;;;;;;15.92;36.34;100498.41;4443400;32;32353;-76
2021/05/09 07:08:18;;;;;;;;;;;;;;;16.11;36.28;100500.81;4441251;32;34848;-75
2021/05/09 07:10:45;;;;;;;;;;;;;;;16.36;35.00;100496.38;4443104;32;35421;-77
2021/05/09 07:13:12;;;;;;;;;;;;;;;16.21;35.62;100498.84;4442761;32;34139;-77
2021/05/09 07:15:41;;;;;;;;;;;;;;;16.26;36.31;100490.28;4443063;32;33407;-75
2021/05/09 07:18:10;;;;;;;;;;;;;;;16.32;33.86;100485.09;4429097;32;34020;-76
2021/05/09 07:20:42;;;;;;;;;;;;;;;16.14;34.44;100492.44;4444005;32;36624;-75
2021/05/09 07:23:12;;;;;;;;;;;;;;;16.39;34.28;100493.38;4442187;32;34954;-77
2021/05/09 07:25:39;;;;;;;;;;;;;;;16.17;34.71;100500.19;4428701;32;33048;-77
2021/05/09 07:28:09;;;;;;;;;;;;;;;16.16;33.76;100505.69;4442147;32;34023;-76
2021/05/09 07:30:38;;;;;;;;;;;;;;;15.90;33.85;100504.91;4442878;32;36641;-77
2021/05/09 07:33:05;;;;;;;;;;;;;;;16.60;32.84;100501.84;4441104;32;33451;-77
2021/05/09 07:35:33;;;;;;;;;;;;;;;16.78;32.45;100489.09;4416710;32;32855;-76
2021/05/09 07:38:03;;;;;;;;;;;;;;;16.34;32.63;100504.56;4443704;32;33985;-76
2021/05/09 07:40:30;;;;;;;;;;;;;;;16.54;32.35;100503.31;4442793;32;35434;-77
2021/05/09 07:43:11;;;;;;;;;;;;;;;16.32;31.86;100501.22;4430157;32;34452;-77
2021/05/09 07:45:38;;;;;;;;;;;;;;;16.71;31.46;100486.22;4441089;32;32690;-76
2021/05/09 07:48:05;;;;;;;;;;;;;;;16.83;31.25;100492.97;4440501;32;34305;-77
2021/05/09 07:50:32;;;;;;;;;;;;;;;17.17;31.52;100490.91;4442310;32;35250;-76
2021/05/09 07:53:00;;;;;;;;;;;;;;;17.58;30.93;100485.31;4443553;32;34395;-77
2021/05/09 07:55:27;;;;;;;;;;;;;;;17.71;30.50;100492.88;4442549;32;32975;-77
2021/05/09 07:57:54;;;;;;;;;;;;;;;17.43;31.17;100491.59;4441708;32;33494;-77
2021/05/09 08:00:23;;;;;;;;;;;;;;;17.45;30.77;100496.81;4425200;32;34562;-77
2021/05/09 08:02:50;;;;;;;;;;;;;;;17.43;30.18;100491.59;4441678;32;34658;-77
2021/05/09 08:05:18;;;;;;;;;;;;;;;17.37;30.23;100502.19;4423011;32;33601;-76
2021/05/09 08:07:48;;;;;;;;;;;;;;;17.82;30.62;100496.03;4441001;32;34110;-76
2021/05/09 08:10:16;;;;;;;;;;;;;;;17.45;28.74;100497.63;4442301;32;35807;-76
2021/05/09 08:12:43;;;;;;;;;;;;;;;17.34;30.32;100506.03;4443338;32;34295;-77
2021/05/09 08:15:11;;;;;;;;;;;;;;;17.16;29.82;100509.94;4431342;32;32421;-76
2021/05/09 08:17:39;;;;;;;;;;;;;;;17.32;30.95;100510.75;4440997;32;33623;-76
2021/05/09 08:20:06;;;;;;;;;;;;;;;17.36;30.20;100504.03;4445270;32;34881;-76
2021/05/09 08:22:34;;;;;;;;;;;;;;;17.40;29.72;100512.59;4445214;32;34282;-76
2021/05/09 08:25:02;;;;;;;;;;;;;;;17.14;30.27;100509.22;4445320;32;35692;-77
2021/05/09 08:27:32;;;;;;;;;;;;;;;17.45;30.12;100500.31;4445216;32;34238;-76
2021/05/09 08:30:01;;;;;;;;;;;;;;;17.82;30.63;100504.13;4445041;32;34075;-77
2021/05/09 08:32:28;;;;;;;;;;;;;;;18.11;31.11;100509.72;4446940;32;33981;-76
2021/05/09 08:34:58;;;;;;;;;;;;;;;18.58;29.13;100502.41;4430461;32;32775;-75
2021/05/09 08:37:25;;;;;;;;;;;;;;;18.56;29.15;100498.22;4446134;32;33389;-77
2021/05/09 08:39:52;;;;;;;;;;;;;;;18.05;28.07;100504.19;4443982;32;34901;-77
2021/05/09 08:42:19;;;;;;;;;;;;;;;18.44;28.45;100496.97;4446027;32;35043;-76
2021/05/09 08:44:47;;;;;;;;;;;;;;;18.71;28.12;100491.06;4443709;32;33152;-76
2021/05/09 08:47:15;;;;;;;;;;;;;;;18.34;26.64;100496.34;4443891;32;36172;-76
2021/05/09 08:49:42;;;;;;;;;;;;;;;18.46;28.25;100492.22;4445985;32;34349;-76
2021/05/09 08:52:09;;;;;;;;;;;;;;;18.39;27.33;100491.25;4442750;32;34708;-76
2021/05/09 08:54:37;;;;;;;;;;;;;;;18.05;27.98;100488.84;4443841;32;32853;-76
2021/05/09 08:57:04;;;;;;;;;;;;;;;18.30;28.18;100489.59;4442356;32;33735;-75
2021/05/09 08:59:31;;;;;;;;;;;;;;;18.04;27.85;100494.44;4446583;32;36241;-76
2021/05/09 09:01:58;;;;;;;;;;;;;;;18.36;27.78;100489.78;4431809;32;32987;-76
2021/05/09 09:04:25;;;;;;;;;;;;;;;18.61;27.16;100485.88;4427917;32;32233;-76
2021/05/09 09:06:53;;;;;;;;;;;;;;;18.40;27.82;100499.16;4442998;32;33739;-77
2021/05/09 09:09:21;;;;;;;;;;;;;;;18.52;25.83;100484.25;4444793;32;34644;-77
2021/05/09 09:11:48;;;;;;;;;;;;;;;18.68;26.76;100492.25;4445462;32;34077;-76
2021/05/09 09:14:15;;;;;;;;;;;;;;;18.52;27.79;100496.91;4442525;32;33010;-75
2021/05/09 09:16:42;;;;;;;;;;;;;;;19.05;29.16;100503.06;4444918;32;33505;-76
2021/05/09 09:19:10;;;;;;;;;;;;;;;18.78;27.22;100494.72;4442656;32;34856;-76
2021/05/09 09:21:37;;;;;;;;;;;;;;;18.73;28.27;100494.41;4444998;32;34310;-76
2021/05/09 09:24:07;;;;;;;;;;;;;;;19.08;27.25;100493.78;4445975;32;32839;-76
2021/05/09 09:26:41;;;;;;;;;;;;;;;19.09;27.22;100499.00;4441056;32;32311;-76
2021/05/09 09:29:19;;;;;;;;;;;;;;;19.23;28.28;100500.94;4444099;32;35952;-77
2021/05/09 09:31:46;;;;;;;;;;;;;;;19.23;26.03;100494.69;4445956;32;33899;-76
2021/05/09 09:34:14;;;;;;;;;;;;;;;19.04;26.83;100485.22;4445918;32;33076;-76
2021/05/09 09:36:41;;;;;;;;;;;;;;;19.33;26.95;100490.72;4444081;32;35736;-76
2021/05/09 09:39:10;;;;;;;;;;;;;;;19.54;26.58;100480.03;4441782;32;34444;-75
2021/05/09 09:41:47;;;;;;;;;;;;;;;19.83;24.20;100490.03;4430119;32;34243;-75
2021/05/09 09:44:15;;;;;;;;;;;;;;;19.32;24.06;100485.50;4439738;32;33565;-75
2021/05/09 09:46:51;;;;;;;;;;;;;;;19.69;23.68;100491.69;4428153;32;34254;-75
2021/05/09 09:49:36;;;;;;;;;;;;;;;19.99;24.83;100487.13;4443739;32;35613;-75
2021/05/09 09:52:05;;;;;;;;;;;;;;;20.44;26.38;100485.03;4427522;32;34428;-76
2021/05/09 09:54:42;;;;;;;;;;;;;;;20.23;25.63;100484.13;4442184;32;32645;-76
2021/05/09 09:57:11;;;;;;;;;;;;;;;20.37;26.54;100477.87;4444499;32;34789;-74
2021/05/09 09:59:38;;;;;;;;;;;;;;;20.42;25.39;100472.72;4428320;32;34154;-76
2021/05/09 10:02:06;;;;;;;;;;;;;;;20.32;24.32;100470.34;4429525;32;34597;-75
2021/05/09 10:04:34;;;;;;;;;;;;;;;20.07;26.67;100468.97;4442553;32;32215;-76
2021/05/09 10:07:04;;;;;;;;;;;;;;;20.32;25.40;100472.19;4443744;32;33421;-74
2021/05/09 10:09:31;;;;;;;;;;;;;;;20.61;25.45;100468.38;4443499;32;35208;-76
2021/05/09 10:11:58;;;;;;;;;;;;;;;20.77;25.57;100468.13;4442582;32;34335;-76
2021/05/09 10:14:25;;;;;;;;;;;;;;;20.60;25.16;100458.59;4442556;32;33146;-77
2021/05/09 10:16:52;;;;;;;;;;;;;;;20.81;25.47;100463.97;4430748;32;33477;-76
2021/05/09 10:19:23;;;;;;;;;;;;;;;21.13;25.02;100454.53;4439596;32;34798;-76
2021/05/09 10:21:51;;;;;;;;;;;;;;;20.93;26.36;100450.81;4445327;32;33867;-73
2021/05/09 10:24:17;;;;;;;;;;;;;;;20.64;26.46;100443.66;4430015;32;34168;-75
2021/05/09 10:26:53;;;;;;;;;;;;;;;20.52;28.16;100458.69;4442832;32;34503;-76
2021/05/09 10:29:37;;;;;;;;;;;;;;;20.94;28.13;100450.63;4439644;32;35795;-76
2021/05/09 10:32:07;;;;;;;;;;;;;;;21.53;28.02;100451.91;4442263;32;34140;-76
2021/05/09 10:37:39;;;;;;;;;;;;;;;21.22;26.29;100450.66;4444531;32;33775;-76
2021/05/09 10:40:18;;;;;;;;;;;;;;;21.32;25.28;100432.19;4444105;32;35966;-75
2021/05/09 10:42:46;;;;;;;;;;;;;;;21.85;24.09;100439.63;4445262;32;34994;-75
2021/05/09 10:45:31;;;;;;;;;;;;;;;21.54;23.76;100429.22;4443878;32;33013;-76
2021/05/09 10:48:33;;;;;;;;;;;;;;;22.43;22.04;100433.63;4442180;32;33354;-76
2021/05/09 10:51:03;;;;;;;;;;;;;;;23.22;22.76;100428.09;4444595;32;34972;-75
2021/05/09 10:53:34;;;;;;;;;;;;;;;24.17;20.43;100427.25;4442268;32;33802;-76
2021/05/09 10:56:10;;;;;;;;;;;;;;;24.09;21.43;100429.38;4443935;32;32800;-76
2021/05/09 10:58:46;;;;;;;;;;;;;;;23.72;20.98;100429.25;4445482;32;33609;-76
2021/05/09 11:01:16;;;;;;;;;;;;;;;23.53;21.23;100414.69;4442568;32;34665;-76
2021/05/09 11:03:44;;;;;;;;;;;;;;;24.12;20.26;100421.62;4443735;32;33960;-76
2021/05/09 11:06:14;;;;;;;;;;;;;;;24.88;18.92;100420.56;4441357;32;33311;-76
2021/05/09 11:08:48;;;;;;;;;;;;;;;25.01;18.80;100417.72;4445467;32;34725;-75
2021/05/09 11:11:18;;;;;;;;;;;;;;;24.93;19.33;100406.28;4443338;32;35363;-75
2021/05/09 11:14:02;;;;;;;;;;;;;;;25.59;18.96;100397.28;4441234;32;34541;-75
2021/05/09 11:16:33;;;;;;;;;;;;;;;25.61;17.80;100405.25;4442200;32;32902;-76
2021/05/09 11:19:03;;;;;;;;;;;;;;;24.89;18.78;100413.22;4443866;32;33208;-78
2021/05/09 11:21:35;;;;;;;;;;;;;;;24.87;19.69;100408.00;4443391;32;35362;-78
2021/05/09 11:24:03;;;;;;;;;;;;;;;25.16;20.79;100401.03;4442228;32;34441;-78
2021/05/09 11:26:44;;;;;;;;;;;;;;;26.08;19.65;100399.87;4443558;32;32976;-78
2021/05/09 11:29:11;;;;;;;;;;;;;;;25.60;19.22;100398.94;4445936;32;32480;-77
2021/05/09 11:31:40;;;;;;;;;;;;;;;25.47;19.48;100395.56;4444384;32;34448;-77
2021/05/09 11:34:08;;;;;;;;;;;;;;;25.16;19.73;100384.72;4443941;32;34701;-79
2021/05/09 11:36:35;;;;;;;;;;;;;;;25.35;22.10;100389.16;4444227;32;32868;-77
2021/05/09 11:39:10;;;;;;;;;;;;;;;25.04;20.19;100375.63;4442660;32;33484;-78
2021/05/09 11:41:57;;;;;;;;;;;;;;;24.91;20.70;100378.47;4442778;32;34820;-77
2021/05/09 11:44:25;;;;;;;;;;;;;;;25.45;21.44;100367.69;4442406;32;33800;-77
2021/05/09 11:46:52;;;;;;;;;;;;;;;25.15;20.68;100372.16;4442996;32;32647;-77
2021/05/09 11:49:21;;;;;;;;;;;;;;;24.87;20.23;100364.47;4445068;32;33813;-76
2021/05/09 11:51:52;;;;;;;;;;;;;;;24.56;21.48;100369.91;4444928;32;35091;-76
2021/05/09 11:54:21;;;;;;;;;;;;;;;24.23;20.89;100363.84;4443600;32;33786;-77
2021/05/09 11:57:01;;;;;;;;;;;;;;;23.91;21.83;100377.59;4431880;32;33933;-76
2021/05/09 11:59:34;;;;;;;;;;;;;;;23.64;21.60;100358.84;4444427;32;34098;-76
2021/05/09 12:02:21;;;;;;;;;;;;;;;23.90;21.69;100352.31;4449513;32;34903;-76
2021/05/09 12:04:55;;;;;;;;;;;;;;;24.43;23.23;100363.69;4452372;32;34326;-76
2021/05/09 12:07:27;;;;;;;;;;;;;;;25.13;19.87;100368.81;4450113;32;32791;-76
2021/05/09 12:10:06;;;;;;;;;;;;;;;24.78;19.89;100367.66;4423530;32;33790;-78
2021/05/09 12:12:34;;;;;;;;;;;;;;;24.20;20.89;100358.81;4437061;32;34440;-76
2021/05/09 12:15:04;;;;;;;;;;;;;;;24.19;21.04;100356.34;4452323;32;34081;-75
2021/05/09 12:17:31;;;;;;;;;;;;;;;24.50;20.76;100342.72;4427074;32;34620;-76
2021/05/09 12:20:00;;;;;;;;;;;;;;;24.19;20.74;100350.91;4433823;32;33523;-75
2021/05/09 12:22:36;;;;;;;;;;;;;;;24.62;20.75;100346.44;4449130;32;35158;-76
2021/05/09 12:25:04;;;;;;;;;;;;;;;24.80;21.75;100341.06;4453319;32;34191;-78
2021/05/09 12:27:32;;;;;;;;;;;;;;;24.89;20.08;100345.16;4420369;32;33758;-77
2021/05/09 12:30:00;;;;;;;;;;;;;;;24.66;19.99;100340.31;4422991;32;34278;-77
2021/05/09 12:32:30;;;;;;;;;;;;;;;24.45;20.18;100334.41;4429454;32;35072;-78
2021/05/09 12:35:08;;;;;;;;;;;;;;;24.42;19.98;100329.41;4448779;32;33851;-77
2021/05/09 12:37:38;;;;;;;;;;;;;;;24.50;20.30;100323.69;4452972;32;32700;-77
2021/05/09 12:40:15;;;;;;;;;;;;;;;24.57;19.26;100327.22;4432557;32;33983;-77
2021/05/09 12:42:49;;;;;;;;;;;;;;;24.28;20.85;100322.41;4450483;32;34671;-77
2021/05/09 12:45:16;;;;;;;;;;;;;;;25.27;19.74;100324.94;4419427;32;32959;-77
2021/05/09 12:48:04;;;;;;;;;;;;;;;25.71;18.77;100326.50;4442966;32;34933;-75
2021/05/09 12:50:51;;;;;;;;;;;;;;;25.62;19.17;100314.25;4450134;32;33257;-77
2021/05/09 12:53:34;;;;;;;;;;;;;;;24.63;20.80;100310.03;4447227;32;35295;-76